createdAt,value
2022-09-28T00:00:42.080Z,1.20
2022-09-28T00:03:13.768Z,1.50
2022-09-28T00:05:44.728Z,1.70
2022-09-28T00:08:15.581Z,1.63
2022-09-28T00:10:56.062Z,1.47
2022-09-28T00:13:28.223Z,1.40
2022-09-28T00:16:13.292Z,1.40
2022-09-28T00:18:44.947Z,1.70
2022-09-28T00:21:27.315Z,1.60
2022-09-28T00:24:17.287Z,1.63
2022-09-28T00:26:54.610Z,1.90
2022-09-28T00:29:31.733Z,2.00
2022-09-28T00:32:15.604Z,2.13
2022-09-28T00:34:46.485Z,2.27
2022-09-28T00:37:19.101Z,2.13
2022-09-28T00:39:50.325Z,2.13
2022-09-28T00:42:24.709Z,2.10
2022-09-28T00:44:59.049Z,2.00
2022-09-28T00:47:44.773Z,1.83
2022-09-28T00:50:28.206Z,1.93
2022-09-28T00:53:14.861Z,2.90
2022-09-28T00:56:07.542Z,2.33
2022-09-28T00:58:48.498Z,2.00
2022-09-28T01:01:19.398Z,2.30
2022-09-28T01:03:50.377Z,2.27
2022-09-28T01:06:27.486Z,1.93
2022-09-28T01:09:03.075Z,2.13
2022-09-28T01:11:38.162Z,2.07
2022-09-28T01:14:12.397Z,1.63
2022-09-28T01:17:07.147Z,1.70
2022-09-28T01:20:11.657Z,2.20
2022-09-28T01:23:13.419Z,1.63
2022-09-28T01:26:08.334Z,1.37
2022-09-28T01:28:43.175Z,1.67
2022-09-28T01:31:16.329Z,1.73
2022-09-28T01:34:11.666Z,1.63
2022-09-28T01:36:55.565Z,1.83
2022-09-28T01:39:37.110Z,1.70
2022-09-28T01:42:22.508Z,1.90
2022-09-28T01:44:57.343Z,1.70
2022-09-28T01:47:33.995Z,1.73
2022-09-28T01:50:12.052Z,1.80
2022-09-28T01:52:56.133Z,1.50
2022-09-28T01:55:35.250Z,1.60
2022-09-28T01:59:11.741Z,1.40
2022-09-28T02:02:12.658Z,1.20
2022-09-28T02:05:08.473Z,1.10
2022-09-28T02:07:54.561Z,1.33
2022-09-28T02:10:38.779Z,1.30
2022-09-28T02:13:18.774Z,1.40
2022-09-28T02:15:56.095Z,1.27
2022-09-28T02:18:27.087Z,1.10
2022-09-28T02:21:24.428Z,1.10
2022-09-28T02:24:06.975Z,1.00
2022-09-28T02:26:41.905Z,0.90
2022-09-28T02:29:13.141Z,1.40
2022-09-28T02:31:44.372Z,1.30
2022-09-28T02:34:15.281Z,1.60
2022-09-28T02:36:47.224Z,1.33
2022-09-28T02:39:19.187Z,0.97
2022-09-28T02:42:27.086Z,1.13
2022-09-28T02:45:47.510Z,1.20
2022-09-28T02:49:10.418Z,1.47
2022-09-28T02:52:19.377Z,1.10
2022-09-28T02:54:50.451Z,1.00
2022-09-28T02:58:06.087Z,1.20
2022-09-28T03:01:00.550Z,1.07
2022-09-28T03:03:59.383Z,2.10
2022-09-28T03:06:40.769Z,1.27
2022-09-28T03:09:32.589Z,1.20
2022-09-28T03:12:13.560Z,1.37
2022-09-28T03:14:45.675Z,1.10
2022-09-28T03:17:16.548Z,1.23
2022-09-28T03:19:47.429Z,1.40
2022-09-28T03:22:18.270Z,1.20
2022-09-28T03:24:49.144Z,1.40
2022-09-28T03:27:21.082Z,1.60
2022-09-28T03:29:51.997Z,1.33
2022-09-28T03:32:22.870Z,1.43
2022-09-28T03:34:53.734Z,1.20
2022-09-28T03:37:24.589Z,1.23
2022-09-28T03:39:55.579Z,2.10
2022-09-28T03:42:26.484Z,1.10
2022-09-28T03:44:57.498Z,1.10
2022-09-28T03:47:28.382Z,1.07
2022-09-28T03:49:59.401Z,1.27
2022-09-28T03:52:30.264Z,1.30
2022-09-28T03:55:01.176Z,1.40
2022-09-28T03:57:32.271Z,1.23
2022-09-28T04:00:05.582Z,1.23
2022-09-28T04:02:36.574Z,1.10
2022-09-28T04:05:07.846Z,1.30
2022-09-28T04:07:38.670Z,1.27
2022-09-28T04:10:09.874Z,1.43
2022-09-28T04:12:40.722Z,1.20
2022-09-28T04:15:11.556Z,1.10
2022-09-28T04:17:43.141Z,1.73
2022-09-28T04:20:14.634Z,1.30
2022-09-28T04:22:45.516Z,1.10
2022-09-28T04:25:16.994Z,1.27
2022-09-28T04:28:07.860Z,1.00
2022-09-28T04:30:38.874Z,1.10
2022-09-28T04:33:09.730Z,1.07
2022-09-28T04:35:40.667Z,1.00
2022-09-28T04:38:11.512Z,1.33
2022-09-28T04:40:42.460Z,1.20
2022-09-28T04:43:13.386Z,1.20
2022-09-28T04:45:44.331Z,1.27
2022-09-28T04:48:15.255Z,1.00
2022-09-28T04:50:57.563Z,1.20
2022-09-28T04:53:29.887Z,1.20
2022-09-28T04:56:11.361Z,0.93
2022-09-28T04:58:43.273Z,1.20
2022-09-28T05:01:18.084Z,1.30
2022-09-28T05:03:51.005Z,1.30
2022-09-28T05:06:22.972Z,1.40
2022-09-28T05:08:57.564Z,1.20
2022-09-28T05:11:28.403Z,1.20
2022-09-28T05:13:59.277Z,1.07
2022-09-28T05:16:33.692Z,1.03
2022-09-28T05:19:06.282Z,1.17
2022-09-28T05:21:37.645Z,1.10
2022-09-28T05:24:09.067Z,1.47
2022-09-28T05:26:40.163Z,1.37
2022-09-28T05:29:11.173Z,1.37
2022-09-28T05:31:42.153Z,1.30
2022-09-28T05:34:13.369Z,1.40
2022-09-28T05:36:45.979Z,1.20
2022-09-28T05:39:17.558Z,1.23
2022-09-28T05:41:48.933Z,1.30
2022-09-28T05:44:20.398Z,1.20
2022-09-28T05:46:53.767Z,1.40
2022-09-28T05:49:24.649Z,1.30
2022-09-28T05:51:55.480Z,1.10
2022-09-28T05:54:26.439Z,1.17
2022-09-28T05:56:57.281Z,1.30
2022-09-28T05:59:30.262Z,1.47
2022-09-28T06:02:01.959Z,1.50
2022-09-28T06:04:33.148Z,1.30
2022-09-28T06:07:04.006Z,1.23
2022-09-28T06:09:34.875Z,1.70
2022-09-28T06:12:05.794Z,1.60
2022-09-28T06:14:36.684Z,1.20
2022-09-28T06:17:07.580Z,1.43
2022-09-28T06:19:39.073Z,1.40
2022-09-28T06:22:09.922Z,1.33
2022-09-28T06:24:40.804Z,1.70
2022-09-28T06:27:11.627Z,1.77
2022-09-28T06:29:42.507Z,1.70
2022-09-28T06:32:14.160Z,2.03
2022-09-28T06:34:45.010Z,1.30
2022-09-28T06:37:15.851Z,1.50
2022-09-28T06:39:46.697Z,1.70
2022-09-28T06:42:19.417Z,1.80
2022-09-28T06:44:50.503Z,1.87
2022-09-28T06:47:21.410Z,2.03
2022-09-28T06:49:55.349Z,1.80
2022-09-28T06:52:26.203Z,1.70
2022-09-28T06:54:57.083Z,2.00
2022-09-28T06:57:27.934Z,1.87
2022-09-28T06:59:58.806Z,1.90
2022-09-28T07:02:31.358Z,2.30
2022-09-28T07:05:03.146Z,1.97
2022-09-28T07:07:34.133Z,2.20
2022-09-28T07:10:05.799Z,2.20
2022-09-28T07:12:36.950Z,2.40
2022-09-28T07:15:09.193Z,2.57
2022-09-28T07:17:53.959Z,2.63
2022-09-28T07:20:34.978Z,2.20
2022-09-28T07:23:18.117Z,2.20
2022-09-28T07:25:50.297Z,2.20
2022-09-28T07:28:21.780Z,2.60
2022-09-28T07:30:52.798Z,2.90
2022-09-28T07:33:27.139Z,2.60
2022-09-28T07:35:58.008Z,2.40
2022-09-28T07:38:29.102Z,3.00
2022-09-28T07:41:12.103Z,3.03
2022-09-28T07:43:43.083Z,4.10
2022-09-28T07:46:13.990Z,2.93
2022-09-28T07:48:45.960Z,3.03
2022-09-28T07:51:19.787Z,2.70
2022-09-28T07:53:50.642Z,3.10
2022-09-28T07:56:21.488Z,3.10
2022-09-28T07:58:52.424Z,3.40
2022-09-28T08:01:23.364Z,3.17
2022-09-28T08:03:56.281Z,3.40
2022-09-28T08:06:27.153Z,3.80
2022-09-28T08:08:59.986Z,3.33
2022-09-28T08:11:30.831Z,3.10
2022-09-28T08:14:02.307Z,3.07
2022-09-28T08:16:33.193Z,3.33
2022-09-28T08:19:04.198Z,3.30
2022-09-28T08:21:47.255Z,3.53
2022-09-28T08:24:19.222Z,3.57
2022-09-28T08:26:50.184Z,3.40
2022-09-28T08:29:21.053Z,2.63
2022-09-28T08:31:51.969Z,2.87
2022-09-28T08:34:22.897Z,2.90
2022-09-28T08:36:57.357Z,2.80
2022-09-28T08:39:28.297Z,2.63
2022-09-28T08:41:59.075Z,3.00
2022-09-28T08:44:49.624Z,3.13
2022-09-28T08:47:47.949Z,3.10
2022-09-28T08:50:25.069Z,2.90
2022-09-28T08:53:08.459Z,2.67
2022-09-28T08:55:40.474Z,2.63
2022-09-28T08:58:42.585Z,3.13
2022-09-28T09:01:18.963Z,2.93
2022-09-28T09:03:50.124Z,2.83
2022-09-28T09:06:45.862Z,2.70
2022-09-28T09:10:18.092Z,2.50
2022-09-28T09:13:26.296Z,3.53
2022-09-28T09:16:21.777Z,3.37
2022-09-28T09:19:01.290Z,3.20
2022-09-28T09:21:48.780Z,3.00
2022-09-28T09:24:48.311Z,3.40
2022-09-28T09:27:54.753Z,2.73
2022-09-28T09:30:30.310Z,2.80
2022-09-28T09:33:28.071Z,3.00
2022-09-28T09:37:05.087Z,2.70
2022-09-28T09:40:35.215Z,2.20
2022-09-28T09:43:38.371Z,3.27
2022-09-28T09:46:18.318Z,2.43
2022-09-28T09:49:28.712Z,2.60
2022-09-28T09:52:13.347Z,2.30
2022-09-28T09:55:10.017Z,2.23
2022-09-28T09:58:21.705Z,2.03
2022-09-28T10:00:55.317Z,2.50
2022-09-28T10:03:31.922Z,2.70
2022-09-28T10:06:11.811Z,2.70
2022-09-28T10:08:50.478Z,3.00
2022-09-28T10:11:28.049Z,2.70
2022-09-28T10:13:59.156Z,3.23
2022-09-28T10:16:33.043Z,3.10
2022-09-28T10:19:04.005Z,2.63
2022-09-28T10:21:37.663Z,2.20
2022-09-28T10:24:22.602Z,3.37
2022-09-28T10:26:55.752Z,3.93
2022-09-28T10:29:27.220Z,2.63
2022-09-28T10:31:58.093Z,2.73
2022-09-28T10:34:30.578Z,2.83
2022-09-28T10:37:09.509Z,3.17
2022-09-28T10:39:49.546Z,2.70
2022-09-28T10:42:30.554Z,2.50
2022-09-28T10:45:20.967Z,2.63
2022-09-28T10:47:51.965Z,2.80
2022-09-28T10:50:28.168Z,2.27
2022-09-28T10:53:20.757Z,2.27
2022-09-28T10:56:04.884Z,2.50
2022-09-28T10:58:42.064Z,2.60
2022-09-28T11:01:21.182Z,2.17
2022-09-28T11:04:02.448Z,2.93
2022-09-28T11:06:38.669Z,2.80
2022-09-28T11:09:32.170Z,2.53
2022-09-28T11:12:06.332Z,2.27
2022-09-28T11:14:42.729Z,2.47
2022-09-28T11:17:33.146Z,1.97
2022-09-28T11:20:28.229Z,1.90
2022-09-28T11:23:17.600Z,2.10
2022-09-28T11:26:03.123Z,2.47
2022-09-28T11:28:37.970Z,2.50
2022-09-28T11:31:09.931Z,2.00
2022-09-28T11:33:43.262Z,1.70
2022-09-28T11:36:14.028Z,1.83
2022-09-28T11:39:09.286Z,1.67
2022-09-28T11:42:21.399Z,1.90
2022-09-28T11:45:17.757Z,1.63
2022-09-28T11:47:52.987Z,1.97
2022-09-28T11:50:39.023Z,2.00
2022-09-28T11:53:27.772Z,1.57
2022-09-28T11:56:15.689Z,2.30
2022-09-28T11:58:51.128Z,1.90
2022-09-28T12:01:43.910Z,1.63
2022-09-28T12:04:33.997Z,1.70
2022-09-28T12:07:23.224Z,1.57
2022-09-28T12:10:04.169Z,1.57
2022-09-28T12:13:06.286Z,1.57
2022-09-28T12:16:38.486Z,1.73
2022-09-28T12:19:10.944Z,1.70
2022-09-28T12:21:56.546Z,2.10
2022-09-28T12:25:02.367Z,1.70
2022-09-28T12:27:51.554Z,1.57
2022-09-28T12:30:27.585Z,1.60
2022-09-28T12:33:05.693Z,1.70
2022-09-28T12:35:54.258Z,2.00
2022-09-28T12:39:35.658Z,1.43
2022-09-28T12:42:52.893Z,1.63
2022-09-28T12:45:38.680Z,1.73
2022-09-28T12:52:57.010Z,1.40
2022-09-28T12:56:05.134Z,1.27
2022-09-28T12:59:00.975Z,2.27
2022-09-28T13:01:57.438Z,1.20
2022-09-28T13:04:53.174Z,1.97
2022-09-28T13:07:40.393Z,1.50
2022-09-28T13:10:34.145Z,1.30
2022-09-28T13:13:17.050Z,2.20
2022-09-28T13:16:23.476Z,2.23
2022-09-28T13:19:28.129Z,1.30
2022-09-28T13:22:29.862Z,1.60
2022-09-28T13:25:11.540Z,1.33
2022-09-28T13:27:51.699Z,1.97
2022-09-28T13:30:23.010Z,1.30
2022-09-28T13:32:57.628Z,1.40
2022-09-28T13:35:28.961Z,1.57
2022-09-28T13:38:17.812Z,1.40
2022-09-28T13:41:11.019Z,1.50
2022-09-28T13:44:12.757Z,1.50
2022-09-28T13:47:21.794Z,1.50
2022-09-28T13:50:28.729Z,2.00
2022-09-28T13:53:30.867Z,5.30
2022-09-28T13:56:38.304Z,1.23
2022-09-28T13:59:23.458Z,1.23
2022-09-28T14:02:09.708Z,1.47
2022-09-28T14:05:20.063Z,1.30
2022-09-28T14:08:08.933Z,1.57
2022-09-28T14:10:56.907Z,1.40
2022-09-28T14:13:43.149Z,1.50
2022-09-28T14:16:23.216Z,1.30
2022-09-28T14:19:02.569Z,1.20
2022-09-28T14:22:05.966Z,1.33
2022-09-28T14:25:17.176Z,1.20
2022-09-28T14:28:46.481Z,1.40
2022-09-28T14:31:30.346Z,1.20
2022-09-28T14:34:03.512Z,1.30
2022-09-28T14:37:01.029Z,1.37
2022-09-28T14:39:52.998Z,1.20
2022-09-28T14:42:25.917Z,1.03
2022-09-28T14:45:06.311Z,1.70
2022-09-28T14:47:43.567Z,1.13
2022-09-28T14:50:20.457Z,1.30
2022-09-28T14:52:55.086Z,1.60
2022-09-28T14:55:38.235Z,1.10
2022-09-28T14:58:22.521Z,1.60
2022-09-28T15:01:06.488Z,1.17
2022-09-28T15:03:42.265Z,1.50
2022-09-28T15:06:16.466Z,1.30
2022-09-28T15:08:47.385Z,1.30
2022-09-28T15:11:26.444Z,1.20
2022-09-28T15:14:08.393Z,1.30
2022-09-28T15:16:39.278Z,1.67
2022-09-28T15:19:44.934Z,1.30
2022-09-28T15:22:20.359Z,0.80
2022-09-28T15:25:02.926Z,1.30
2022-09-28T15:27:36.818Z,1.00
2022-09-28T15:30:23.293Z,1.33
2022-09-28T15:32:56.998Z,1.03
2022-09-28T15:35:28.400Z,1.73
2022-09-28T15:37:59.278Z,1.70
2022-09-28T15:40:34.058Z,0.80
2022-09-28T15:43:30.562Z,1.27
2022-09-28T15:46:18.477Z,1.70
2022-09-28T15:48:59.708Z,1.37
2022-09-28T15:51:46.406Z,1.67
2022-09-28T15:54:25.450Z,1.30
2022-09-28T15:57:01.654Z,1.67
2022-09-28T15:59:35.606Z,1.83
2022-09-28T16:02:22.674Z,2.30
2022-09-28T16:04:58.784Z,1.50
2022-09-28T16:07:40.313Z,1.30
2022-09-28T16:10:14.186Z,1.63
2022-09-28T16:12:58.861Z,1.10
2022-09-28T16:15:37.074Z,2.03
2022-09-28T16:18:18.181Z,1.47
2022-09-28T16:20:52.624Z,1.47
2022-09-28T16:23:34.122Z,1.60
2022-09-28T16:26:13.771Z,1.17
2022-09-28T16:28:48.836Z,0.90
2022-09-28T16:31:20.282Z,1.47
2022-09-28T16:34:01.227Z,1.27
2022-09-28T16:36:45.533Z,1.83
2022-09-28T16:39:18.586Z,1.53
2022-09-28T16:41:54.653Z,1.23
2022-09-28T16:44:30.220Z,1.60
2022-09-28T16:47:01.111Z,1.20
2022-09-28T16:49:32.945Z,1.67
2022-09-28T16:52:03.822Z,1.53
2022-09-28T16:54:53.088Z,1.97
2022-09-28T16:57:23.964Z,1.53
2022-09-28T16:59:54.841Z,1.93
2022-09-28T17:02:46.577Z,1.90
2022-09-28T17:05:21.674Z,1.40
2022-09-28T17:08:04.202Z,1.50
2022-09-28T17:11:24.066Z,1.70
2022-09-28T17:13:58.904Z,1.90
2022-09-28T17:17:02.357Z,1.73
2022-09-28T17:19:25.604Z,1.80
2022-09-28T17:21:56.437Z,1.80
2022-09-28T17:24:27.314Z,1.93
2022-09-28T17:27:00.754Z,1.73
2022-09-28T17:29:32.660Z,2.13
2022-09-28T17:32:09.123Z,1.90
2022-09-28T17:34:40.018Z,2.40
2022-09-28T17:37:14.266Z,1.80
2022-09-28T17:39:45.114Z,2.33
2022-09-28T17:42:17.282Z,3.30
2022-09-28T17:44:48.156Z,4.00
2022-09-28T17:47:18.999Z,4.93
2022-09-28T17:49:55.152Z,5.13
2022-09-28T17:52:26.001Z,6.13
2022-09-28T17:54:56.894Z,8.00
2022-09-28T17:57:27.873Z,7.27
2022-09-28T17:59:58.795Z,6.90
2022-09-28T18:02:29.683Z,5.90
2022-09-28T18:05:00.572Z,4.57
2022-09-28T18:07:34.310Z,5.07
2022-09-28T18:10:06.948Z,4.20
2022-09-28T18:12:37.802Z,4.30
2022-09-28T18:15:10.274Z,3.40
2022-09-28T18:17:41.686Z,3.73
2022-09-28T18:20:13.899Z,4.17
2022-09-28T18:22:44.770Z,3.57
2022-09-28T18:25:15.760Z,3.90
2022-09-28T18:27:46.678Z,4.13
2022-09-28T18:30:17.617Z,3.70
2022-09-28T18:32:48.459Z,3.97
2022-09-28T18:35:22.947Z,3.30
2022-09-28T18:37:54.320Z,4.77
2022-09-28T18:40:25.407Z,3.50
2022-09-28T18:42:56.260Z,3.33
2022-09-28T18:45:27.304Z,3.30
2022-09-28T18:47:59.625Z,3.10
2022-09-28T18:50:30.539Z,4.40
2022-09-28T18:53:11.446Z,3.90
2022-09-28T18:55:43.410Z,3.57
2022-09-28T18:58:14.284Z,3.50
2022-09-28T19:00:45.562Z,3.77
2022-09-28T19:03:16.548Z,4.43
2022-09-28T19:05:47.531Z,3.40
2022-09-28T19:08:18.448Z,3.43
2022-09-28T19:10:49.357Z,3.90
2022-09-28T19:13:20.233Z,4.10
2022-09-28T19:15:51.162Z,3.70
2022-09-28T19:18:22.155Z,4.17
2022-09-28T19:20:53.011Z,3.90
2022-09-28T19:23:26.752Z,3.90
2022-09-28T19:26:01.570Z,4.30
2022-09-28T19:28:33.809Z,4.90
2022-09-28T19:31:09.144Z,4.00
2022-09-28T19:33:41.751Z,3.57
2022-09-28T19:36:16.637Z,3.60
2022-09-28T19:38:47.800Z,4.00
2022-09-28T19:41:44.818Z,4.00
2022-09-28T19:44:27.796Z,4.10
2022-09-28T19:47:06.734Z,4.20
2022-09-28T19:49:40.271Z,4.27
2022-09-28T19:52:17.244Z,4.23
2022-09-28T19:54:57.412Z,4.03
2022-09-28T19:57:31.711Z,4.23
2022-09-28T20:00:03.923Z,4.20
2022-09-28T20:02:35.304Z,4.17
2022-09-28T20:05:06.543Z,3.90
2022-09-28T20:07:39.314Z,3.60
2022-09-28T20:10:11.970Z,5.00
2022-09-28T20:12:43.085Z,4.27
2022-09-28T20:15:14.136Z,4.03
2022-09-28T20:17:45.023Z,4.07
2022-09-28T20:20:16.675Z,4.50
2022-09-28T20:22:47.613Z,5.30
2022-09-28T20:25:18.783Z,4.40
2022-09-28T20:27:50.019Z,5.03
2022-09-28T20:30:21.037Z,5.50
2022-09-28T20:32:51.968Z,3.93
2022-09-28T20:35:32.694Z,5.30
2022-09-28T20:38:09.070Z,4.90
2022-09-28T20:40:42.650Z,4.67
2022-09-28T20:43:15.289Z,4.47
2022-09-28T20:45:46.127Z,4.20
2022-09-28T20:48:17.010Z,5.00
2022-09-28T20:50:47.877Z,4.70
2022-09-28T20:53:18.746Z,4.73
2022-09-28T20:56:23.571Z,3.90
2022-09-28T20:58:55.636Z,5.33
2022-09-28T21:01:29.969Z,4.50
2022-09-28T21:04:04.603Z,3.80
2022-09-28T21:06:39.665Z,3.40
2022-09-28T21:09:12.361Z,4.43
2022-09-28T21:11:43.441Z,4.00
2022-09-28T21:14:14.905Z,4.57
2022-09-28T21:16:45.849Z,3.80
2022-09-28T21:19:18.343Z,3.80
2022-09-28T21:21:49.263Z,3.47
2022-09-28T21:24:20.352Z,3.40
2022-09-28T21:26:51.379Z,3.20
2022-09-28T21:29:22.334Z,2.93
2022-09-28T21:31:53.234Z,3.97
2022-09-28T21:34:24.320Z,2.83
2022-09-28T21:36:57.973Z,3.40
2022-09-28T21:39:28.907Z,3.43
2022-09-28T21:41:59.787Z,3.13
2022-09-28T21:44:31.031Z,3.37
2022-09-28T21:47:01.913Z,3.63
2022-09-28T21:49:32.860Z,3.63
2022-09-28T21:52:03.799Z,4.00
2022-09-28T21:54:37.350Z,4.07
2022-09-28T21:57:09.655Z,3.67
2022-09-28T21:59:40.551Z,3.57
2022-09-28T22:02:11.466Z,3.87
2022-09-28T22:04:42.411Z,3.17
2022-09-28T22:07:13.274Z,3.70
2022-09-28T22:09:44.177Z,3.30
2022-09-28T22:12:15.922Z,2.87
2022-09-28T22:14:46.826Z,3.03
2022-09-28T22:17:17.691Z,3.33
2022-09-28T22:19:48.604Z,3.30
2022-09-28T22:22:19.538Z,4.40
2022-09-28T22:24:50.465Z,3.77
2022-09-28T22:27:21.355Z,3.53
2022-09-28T22:29:52.365Z,3.63
2022-09-28T22:32:23.847Z,4.30
2022-09-28T22:34:54.731Z,4.23
2022-09-28T22:37:28.048Z,5.03
2022-09-28T22:40:00.753Z,3.70
2022-09-28T22:42:32.619Z,4.57
2022-09-28T22:45:03.994Z,3.70
2022-09-28T22:47:34.972Z,4.50
2022-09-28T22:50:08.197Z,4.13
2022-09-28T22:52:39.083Z,4.50
2022-09-28T22:55:10.194Z,3.93
2022-09-28T22:57:41.060Z,4.20
2022-09-28T23:00:12.531Z,4.00
2022-09-28T23:02:43.520Z,4.10
2022-09-28T23:05:14.608Z,5.10
2022-09-28T23:07:45.540Z,4.20
2022-09-28T23:10:16.659Z,3.70
2022-09-28T23:12:47.539Z,4.37
2022-09-28T23:15:18.455Z,4.67
2022-09-28T23:17:53.203Z,4.70
2022-09-28T23:20:24.246Z,4.37
2022-09-28T23:22:55.196Z,4.60
2022-09-28T23:25:26.222Z,4.83
2022-09-28T23:27:57.204Z,4.27
2022-09-28T23:30:28.088Z,4.97
2022-09-28T23:32:59.014Z,4.70
2022-09-28T23:35:29.952Z,4.50
2022-09-28T23:38:00.800Z,3.87
2022-09-28T23:40:31.745Z,4.83
2022-09-28T23:43:02.708Z,4.23
2022-09-28T23:45:33.703Z,5.00
2022-09-28T23:48:04.746Z,3.67
2022-09-28T23:50:35.618Z,4.37
2022-09-28T23:53:06.629Z,4.77
2022-09-28T23:55:37.795Z,5.00
2022-09-28T23:58:09.267Z,4.90
